Clayton, Alabama
Current Conditions -  °F | °C
As of 1:58 PM on Sunday 25 Jan 2015 (Local Time) from KEUF Reporting Station
Clear Clear  
Wind Chill: 63°   Ceiling: Unl
Heat Index: 63°   Visibility: 10mi
Dew Point: 33°   Wind: 10mph
Humidity: 33%   Direction: 220°SW
Pressure: 29.85"   Gusts: 20mph
Location:  31.88°N, 85.45°W
Report Text: KEUF 251958Z AUTO 22009G17KT 10SM CLR 17/01 A2985 RMK AO2 SLP107 T01720006
Loading
Personal Weather Stations






























Interactive Weather Map New forecast layout! Learn more

10-Day Weather Forecast

Advertisements
Track Severe Weather on mobile